• Join FlightAware (Why Join?)
  • Login
  • US Flag 
03:23PM EDT


 

Airport Tracker/Info


-or-


 

Live Flight TrackerFlight Track Log ✈ SWA1462 ✈ 09-Apr-2013 ✈ KPHX - KSEA

Flight Track Log - Related Links

Times and Time Zones

All times are in EDT time to prevent confusion due to time zone crossing. See the SWA1462 flight status page for this flight to view local times or setup timezone preferences in your user account.

Time Position Orientation Groundspeed Altitude Reporting Facility
EDT Latitude Longitude Course Direction KTS MPH feet Rate Location/Type
04:04PM 33.4333 -112.0333 273° West 163 188 2,400  Level Phoenix TRACON
04:06PM 33.4381 -112.1419 273° West 210 242 6,300 3,060 Climbing Los Angeles Center
04:07PM 33.5078 -112.1803 335° Northwest 299 344 11,100 3,600 Climbing Los Angeles Center
04:08PM 33.5592 -112.1369 35° Northeast 293 337 13,400 2,700 Climbing Albuquerque Center
04:09PM 33.6506 -112.0619 34° Northeast 331 381 16,400 2,700 Climbing Albuquerque Center
04:10PM 33.7328 -111.9942 34° Northeast 355 409 19,000 1,680 Climbing Albuquerque Center
04:11PM 33.8206 -111.9206 35° Northeast 367 422 19,900 1,500 Climbing Albuquerque Center
04:12PM 33.9111 -111.8603 29° Northeast 373 429 22,100 2,160 Climbing Albuquerque Center
04:13PM 34.0283 -111.8744 354° North 391 450 24,400 2,040 Climbing Albuquerque Center
04:14PM 34.1381 -111.8881 354° North 397 457 26,400 1,800 Climbing Albuquerque Center
04:15PM 34.2450 -111.9053 352° North 407 468 28,100 1,500 Climbing Albuquerque Center
04:16PM 34.3631 -111.9219 353° North 420 483 29,500 1,260 Climbing Albuquerque Center
04:17PM 34.4825 -111.9386 353° North 428 493 30,700 1,260 Climbing Albuquerque Center
04:18PM 34.6056 -111.9558 353° North 438 504 32,200 1,680 Climbing Albuquerque Center
04:19PM 34.7525 -111.9764 353° North 442 509 34,200 1,500 Climbing Albuquerque Center
04:20PM 34.8756 -111.9939 353° North 439 505 35,400 840 Climbing Albuquerque Center
04:21PM 34.9983 -112.0108 354° North 443 510 36,000 240 Climbing Albuquerque Center
04:22PM 35.1211 -112.0264 354° North 445 512 36,000  Level Albuquerque Center
04:23PM 35.2431 -112.0444 353° North 445 512 36,000  Level Albuquerque Center
04:24PM 35.3633 -112.0617 353° North 443 510 36,000  Level Albuquerque Center
04:25PM 35.5089 -112.0819 354° North 442 509 36,000  Level Albuquerque Center
04:26PM 35.6539 -112.1017 354° North 440 506 36,000 300 Level Los Angeles Center
04:27PM 35.7736 -112.1186 353° North 438 504 36,700 600 Climbing Los Angeles Center
04:28PM 35.8939 -112.1364 353° North 438 504 37,300 480 Climbing Los Angeles Center
04:29PM 36.0153 -112.1725 346° North 453 521 37,800 300 Climbing Los Angeles Center
04:31PM 36.1525 -112.2422 338° Northwest 450 518 38,000 60 Climbing Los Angeles Center
04:32PM 36.2697 -112.2975 339° North 447 514 38,000  Level Los Angeles Center
04:33PM 36.3844 -112.3553 338° Northwest 446 513 38,000  Level Los Angeles Center
04:34PM 36.5028 -112.4000 343° North 446 513 38,000  Level Los Angeles Center
04:35PM 36.6261 -112.4256 351° North 450 518 38,000  Level Los Angeles Center
04:36PM 36.7728 -112.4608 349° North 450 518 38,000  Level Los Angeles Center
04:37PM 36.8950 -112.4894 349° North 449 517 38,000  Level Los Angeles Center
04:38PM 37.0164 -112.5194 349° North 446 513 38,000  Level Los Angeles Center
04:39PM 37.1364 -112.5514 348° North 443 510 38,000  Level Los Angeles Center
04:40PM 37.2422 -112.6300 329° Northwest 443 510 38,000  Level Los Angeles Center
04:40PM 37.2831 -112.6633 327° Northwest 442 509 38,000  Level Salt Lake Center
04:41PM 37.3858 -112.7453 328° Northwest 440 506 38,000  Level Salt Lake Center
04:42PM 37.4894 -112.8278 328° Northwest 439 505 38,000  Level Salt Lake Center
04:43PM 37.5831 -112.9044 327° Northwest 438 504 38,000  Level Salt Lake Center
04:44PM 37.6933 -113.0178 321° Northwest 440 506 38,000  Level Salt Lake Center
04:45PM 37.7839 -113.1200 318° Northwest 436 502 38,000  Level Salt Lake Center
04:46PM 37.8736 -113.2217 318° Northwest 434 499 38,000  Level Salt Lake Center
04:47PM 37.9631 -113.3217 319° Northwest 431 496 38,000  Level Salt Lake Center
04:48PM 38.0519 -113.4222 318° Northwest 429 494 38,000  Level Salt Lake Center
04:49PM 38.1381 -113.5233 317° Northwest 425 489 38,000  Level Salt Lake Center
04:50PM 38.2283 -113.6183 320° Northwest 421 484 38,000  Level Salt Lake Center
04:51PM 38.3144 -113.7189 318° Northwest 419 482 38,000  Level Salt Lake Center
04:52PM 38.4019 -113.8169 319° Northwest 420 483 38,000  Level Salt Lake Center
04:53PM 38.5058 -113.9367 318° Northwest 421 484 38,000  Level Salt Lake Center
04:54PM 38.5939 -114.0378 318° Northwest 424 488 38,000  Level Salt Lake Center
04:55PM 38.6833 -114.1406 318° Northwest 431 496 38,000  Level Salt Lake Center
04:56PM 38.7714 -114.2428 318° Northwest 429 494 38,000  Level Salt Lake Center
04:57PM 38.8592 -114.3450 318° Northwest 428 493 38,000  Level Salt Lake Center
04:58PM 38.9456 -114.4467 318° Northwest 424 488 38,000  Level Salt Lake Center
05:00PM 39.0311 -114.5481 317° Northwest 421 484 38,000  Level Salt Lake Center
05:01PM 39.1164 -114.6461 318° Northwest 415 478 38,000  Level Salt Lake Center
05:02PM 39.2036 -114.7561 316° Northwest 420 483 38,000  Level Salt Lake Center
05:03PM 39.3003 -114.8675 318° Northwest 417 480 38,000  Level Salt Lake Center
05:04PM 39.3939 -114.9336 331° Northwest 402 463 38,000  Level Salt Lake Center
05:05PM 39.5078 -115.0050 334° Northwest 405 466 38,000  Level Salt Lake Center
05:06PM 39.6028 -115.0700 332° Northwest 402 463 38,000  Level Salt Lake Center
05:07PM 39.6969 -115.1339 332° Northwest 400 460 38,000  Level Salt Lake Center
05:08PM 39.8056 -115.2083 332° Northwest 397 457 38,000  Level Salt Lake Center
05:09PM 39.8989 -115.2717 333° Northwest 395 455 38,000  Level Salt Lake Center
05:10PM 40.0083 -115.3461 332° Northwest 395 455 38,000  Level Salt Lake Center
05:11PM 40.1011 -115.4119 332° Northwest 398 458 38,000  Level Salt Lake Center
05:12PM 40.1936 -115.4753 332° Northwest 395 455 38,000  Level Salt Lake Center
05:13PM 40.3044 -115.5514 332° Northwest 399 459 38,000  Level Salt Lake Center
05:14PM 40.3981 -115.6167 332° Northwest 400 460 38,000  Level Salt Lake Center
05:15PM 40.5050 -115.6933 331° Northwest 395 455 38,000  Level Salt Lake Center
05:16PM 40.5983 -115.7575 332° Northwest 395 455 38,000  Level Salt Lake Center
05:17PM 40.7019 -115.8306 332° Northwest 384 442 38,000  Level Salt Lake Center
05:18PM 40.7922 -115.8936 332° Northwest 384 442 38,000  Level Salt Lake Center
05:19PM 40.8797 -115.9550 332° Northwest 379 436 38,000  Level Salt Lake Center
05:20PM 40.9783 -116.0244 332° Northwest 366 421 38,000  Level Salt Lake Center
05:21PM 41.0642 -116.0853 332° Northwest 363 418 38,000  Level Salt Lake Center
05:22PM 41.1653 -116.1575 332° Northwest 369 425 38,000  Level Salt Lake Center
05:23PM 41.2511 -116.2186 332° Northwest 368 423 38,000  Level Salt Lake Center
05:24PM 41.3519 -116.2942 331° Northwest 372 428 38,000  Level Salt Lake Center
05:25PM 41.4367 -116.3550 332° Northwest 364 419 38,000  Level Salt Lake Center
05:26PM 41.5192 -116.4156 331° Northwest 356 410 38,000  Level Salt Lake Center
05:27PM 41.6181 -116.4867 332° Northwest 360 414 38,000  Level Salt Lake Center
05:28PM 41.7025 -116.5478 332° Northwest 361 415 38,000  Level Salt Lake Center
05:29PM 41.8014 -116.6194 332° Northwest 361 415 38,000  Level Salt Lake Center
05:30PM 41.8842 -116.6811 331° Northwest 355 409 38,000  Level Salt Lake Center
05:31PM 41.9808 -116.7503 332° Northwest 351 404 38,000  Level Salt Lake Center
05:32PM 42.0639 -116.8106 332° Northwest 355 409 38,000  Level Salt Lake Center
05:33PM 42.1475 -116.8717 332° Northwest 359 413 38,000  Level Salt Lake Center
05:34PM 42.2433 -116.9431 331° Northwest 353 406 38,000  Level Salt Lake Center
05:35PM 42.3233 -117.0036 331° Northwest 348 400 38,000  Level Salt Lake Center
05:36PM 42.4189 -117.0739 332° Northwest 349 402 38,000  Level Salt Lake Center
05:37PM 42.5028 -117.1375 331° Northwest 357 411 38,000  Level Salt Lake Center
05:38PM 42.5989 -117.2103 331° Northwest 354 407 38,000  Level Salt Lake Center
05:40PM 42.6814 -117.2731 331° Northwest 354 407 38,000  Level Salt Lake Center
05:41PM 42.7789 -117.3467 331° Northwest 358 412 38,000  Level Salt Lake Center
05:42PM 42.8619 -117.4094 331° Northwest 357 411 38,000  Level Salt Lake Center
05:43PM 42.9442 -117.4725 331° Northwest 355 409 38,000  Level Salt Lake Center
05:44PM 43.0408 -117.5456 331° Northwest 355 409 38,000  Level Salt Lake Center
05:45PM 43.1225 -117.6081 331° Northwest 351 404 38,000  Level Salt Lake Center
05:46PM 43.2197 -117.6831 331° Northwest 356 410 38,000  Level Salt Lake Center
05:47PM 43.3025 -117.7481 330° Northwest 357 411 38,000  Level Salt Lake Center
05:48PM 43.3856 -117.8119 331° Northwest 357 411 38,000  Level Salt Lake Center
05:49PM 43.4842 -117.8889 330° Northwest 361 415 38,000  Level Salt Lake Center
05:50PM 43.5683 -117.9544 331° Northwest 363 418 38,000  Level Salt Lake Center
05:51PM 43.6667 -118.0322 330° Northwest 365 420 38,000  Level Salt Lake Center
05:52PM 43.7525 -118.0989 331° Northwest 370 426 38,000  Level Salt Lake Center
05:53PM 43.8514 -118.1756 331° Northwest 365 420 38,000  Level Salt Lake Center
05:54PM 43.9339 -118.2417 330° Northwest 360 414 38,000  Level Salt Lake Center
05:55PM 44.0167 -118.3072 330° Northwest 358 412 38,000  Level Salt Lake Center
05:56PM 44.1047 -118.3767 330° Northwest 356 410 38,000  Level Salt Lake Center
05:57PM 44.1722 -118.4319 330° Northwest 353 406 38,000  Level Seattle Center
05:58PM 44.2578 -118.4983 331° Northwest 354 407 38,000  Level Seattle Center
05:59PM 44.3414 -118.5656 330° Northwest 350 403 38,000  Level Seattle Center
06:00PM 44.4431 -118.6483 330° Northwest 353 406 38,000  Level Seattle Center
06:01PM 44.5289 -118.7164 331° Northwest 354 407 38,000  Level Seattle Center
06:02PM 44.6147 -118.7867 330° Northwest 357 411 38,000  Level Seattle Center
06:03PM 44.6986 -118.8547 330° Northwest 352 405 38,000  Level Seattle Center
06:04PM 44.7833 -118.9256 329° Northwest 355 409 38,000  Level Seattle Center
06:05PM 44.8678 -118.9964 329° Northwest 355 409 38,000  Level Seattle Center
06:06PM 44.9556 -119.0667 330° Northwest 362 417 38,000  Level Seattle Center
06:07PM 45.0431 -119.1392 330° Northwest 366 421 38,000  Level Seattle Center
06:08PM 45.1300 -119.2125 329° Northwest 367 422 38,000  Level Seattle Center
06:09PM 45.2181 -119.2842 330° Northwest 368 423 38,000  Level Seattle Center
06:10PM 45.3047 -119.3592 329° Northwest 367 422 38,000  Level Seattle Center
06:11PM 45.3925 -119.4336 329° Northwest 369 425 38,000  Level Seattle Center
06:12PM 45.4978 -119.5194 330° Northwest 367 422 38,000  Level Seattle Center
06:13PM 45.5853 -119.5933 329° Northwest 367 422 38,000  Level Seattle Center
06:14PM 45.6719 -119.6664 330° Northwest 364 419 38,000  Level Seattle Center
06:15PM 45.7575 -119.7403 329° Northwest 362 417 38,000  Level Seattle Center
06:16PM 45.8431 -119.8117 330° Northwest 359 413 38,000  Level Seattle Center
06:17PM 45.9289 -119.8858 329° Northwest 360 414 38,000  Level Seattle Center
06:18PM 46.0139 -119.9597 329° Northwest 359 413 38,000  Level Seattle Center
06:19PM 46.0997 -120.0347 329° Northwest 361 415 38,000  Level Seattle Center
06:20PM 46.1867 -120.1083 330° Northwest 364 419 38,000  Level Seattle Center
06:21PM 46.2736 -120.1875 328° Northwest 369 425 38,000  Level Seattle Center
06:22PM 46.3606 -120.2619 329° Northwest 365 420 38,000  Level Seattle Center
06:23PM 46.4467 -120.3389 328° Northwest 365 420 38,000  Level Seattle Center
06:24PM 46.5342 -120.4142 329° Northwest 367 422 38,000  Level Seattle Center
06:25PM 46.6144 -120.5419 312° West 365 420 38,000 -900 Level Seattle Center
06:26PM 46.6722 -120.6622 305° West 364 419 36,300 -2,280 Descending Seattle Center
06:27PM 46.7289 -120.7808 305° West 358 412 33,400 -2,820 Descending Seattle Center
06:28PM 46.7886 -120.9067 305° West 371 427 30,600 -2,580 Descending Seattle Center
06:29PM 46.8486 -121.0386 304° West 387 445 28,200 -2,340 Descending Seattle Center
06:30PM 46.9078 -121.1633 305° West 379 436 25,900 -2,280 Descending Seattle Center
06:31PM 46.9650 -121.2872 304° West 371 427 23,600 -2,220 Descending Seattle Center
06:32PM 47.0194 -121.4083 303° West 362 417 21,400 -2,220 Descending Seattle Center
06:33PM 47.0544 -121.4761 307° West 348 400 20,200 -1,500 Descending Seattle Center
06:33PM 47.0750 -121.5239 302° West 346 398 19,900 -1,440 Descending Seattle Center
06:34PM 47.1181 -121.6167 304° West 311 358 18,400 -1,740 Descending Seattle Center
06:35PM 47.1681 -121.7225 305° West 313 360 16,800 -1,920 Descending Seattle Center
06:36PM 47.2089 -121.8108 304° West 314 361 14,900 -1,500 Descending Seattle Center
06:36PM 47.2214 -121.8383 304° West 312 359 15,000 -1,020 Climbing Seattle Center
06:37PM 47.2553 -121.9125 304° West 300 345 13,900 -1,500 Descending Seattle Center
06:37PM 47.2664 -121.9364 304° West 295 339 13,500 -1,500 Descending Seattle Center
06:38PM 47.2983 -122.0097 303° West 282 325 12,400 -1,500 Descending Seattle Center
06:38PM 47.3097 -122.0314 308° West 283 326 12,000 -1,620 Descending Seattle Center
06:39PM 47.3417 -122.1003 304° West 272 313 10,800 -1,800 Descending Seattle Center
06:39PM 47.3597 -122.1419 303° West 273 314 10,200 -900 Descending Seattle Center
06:40PM 47.3892 -122.1819 317° Northwest 266 306 9,900 -1,200 Descending Seattle Center
06:40PM 47.4206 -122.1836 358° North 269 310 9,000 -1,860 Descending Seattle Center
06:41PM 47.4575 -122.1800 North 272 313 8,200 -1,620 Descending Seattle Center
06:41PM 47.4939 -122.1761 North 267 307 7,400 -1,800 Descending Seattle Center
06:42PM 47.5406 -122.1733 North 259 298 6,200 -1,680 Descending Seattle Center
06:42PM 47.5678 -122.1706 North 259 298 5,700 -1,140 Descending Seattle Center
06:43PM 47.6167 -122.1672 North 253 291 5,000 -720 Descending Seattle Center
06:43PM 47.6406 -122.1700 356° North 244 281 5,000  Level Seattle Center
06:44PM 47.6561 -122.2078 301° West 211 243 5,000  Level Seattle Center
06:44PM 47.6564 -122.2461 271° West 206 237 5,000  Level Seattle Center
06:45PM 47.6553 -122.2839 268° West 192 221 5,000 -420 Level Seattle Center
06:45PM 47.6336 -122.3039 212° Southwest 184 212 4,600 -1,020 Descending Seattle Center
06:46PM 47.6131 -122.3106 192° South 161 185 4,000 -1,320 Descending Seattle Center
06:46PM 47.5875 -122.3108 180° South 171 197 3,300 -1,440 Descending Seattle Center
06:47PM 47.5617 -122.3094 178° South 171 197 2,600 -1,200 Descending Seattle Center
06:47PM 47.5411 -122.3108 183° South 169 194 2,100 -900 Descending Seattle Center
06:48PM 47.5203 -122.3128 184° South 148 170 1,700 -840 Descending Seattle Center
06:48PM 47.5028 -122.3111 176° South 136 157 1,300 -720 Descending Seattle Center
06:49PM 47.4847 -122.3125 183° South 123 142 1,000 -720 Descending Seattle Center
06:49PM 47.4667 -122.3114 178° South 130 150 600 -420 Descending Seattle Center
06:50PM 47.4294 -122.3142 183° South 131 151 400 -240 Descending Seattle Center
06:52PM 47.4333 -122.3000 306° West  Level FlightAware Approximate